createdAt,value
2023-01-09T00:00:42.842Z,26.97
2023-01-09T00:01:50.764Z,26.92
2023-01-09T00:02:52.745Z,26.79
2023-01-09T00:03:54.692Z,26.87
2023-01-09T00:04:56.497Z,26.85
2023-01-09T00:05:58.275Z,26.84
2023-01-09T00:07:00.140Z,26.74
2023-01-09T00:08:02.031Z,26.86
2023-01-09T00:09:03.965Z,26.95
2023-01-09T00:10:06.820Z,26.62
2023-01-09T00:11:08.851Z,26.92
2023-01-09T00:12:10.633Z,26.74
2023-01-09T00:13:13.783Z,26.71
2023-01-09T00:14:16.900Z,26.86
2023-01-09T00:15:18.805Z,27.00
2023-01-09T00:16:21.089Z,26.81
2023-01-09T00:17:22.928Z,27.03
2023-01-09T00:18:24.840Z,26.86
2023-01-09T00:19:26.617Z,26.70
2023-01-09T00:20:28.431Z,26.99
2023-01-09T00:21:30.221Z,27.37
2023-01-09T00:22:32.185Z,26.71
2023-01-09T00:23:34.459Z,27.00
2023-01-09T00:24:37.257Z,27.00
2023-01-09T00:25:40.512Z,26.99
2023-01-09T00:26:44.148Z,26.71
2023-01-09T00:27:47.256Z,26.94
2023-01-09T00:28:51.172Z,27.18
2023-01-09T00:29:52.989Z,27.07
2023-01-09T00:30:59.666Z,26.81
2023-01-09T00:32:01.517Z,27.15
2023-01-09T00:33:03.428Z,26.89
2023-01-09T00:34:07.588Z,27.42
2023-01-09T00:35:14.599Z,26.78
2023-01-09T00:36:16.361Z,26.95
2023-01-09T00:37:18.246Z,26.91
2023-01-09T00:38:20.044Z,26.91
2023-01-09T00:39:25.015Z,26.95
2023-01-09T00:40:26.938Z,26.90
2023-01-09T00:41:43.226Z,27.21
2023-01-09T00:42:49.801Z,27.08
2023-01-09T00:43:55.235Z,27.11
2023-01-09T00:45:03.989Z,26.95
2023-01-09T00:46:07.068Z,26.78
2023-01-09T00:47:14.630Z,27.08
2023-01-09T00:48:25.077Z,26.90
2023-01-09T00:49:30.891Z,27.06
2023-01-09T00:50:35.169Z,27.00
2023-01-09T00:51:38.080Z,27.16
2023-01-09T00:52:40.860Z,27.11
2023-01-09T00:53:43.524Z,27.04
2023-01-09T00:54:46.431Z,27.11
2023-01-09T00:55:48.200Z,26.91
2023-01-09T00:56:50.101Z,27.28
2023-01-09T00:57:52.031Z,27.20
2023-01-09T00:58:54.561Z,26.97
2023-01-09T00:59:57.600Z,26.84
2023-01-09T01:01:00.035Z,27.07
2023-01-09T01:02:02.071Z,26.96
2023-01-09T01:03:04.278Z,27.29
2023-01-09T01:04:26.048Z,26.85
2023-01-09T01:05:46.212Z,27.08
2023-01-09T01:07:06.332Z,27.06
2023-01-09T01:08:16.252Z,26.85
2023-01-09T01:09:18.055Z,26.95
2023-01-09T01:10:22.849Z,27.10
2023-01-09T01:11:24.665Z,26.86
2023-01-09T01:12:26.452Z,26.94
2023-01-09T01:13:28.340Z,27.21
2023-01-09T01:14:30.208Z,26.91
2023-01-09T01:15:32.049Z,26.93
2023-01-09T01:16:33.877Z,26.92
2023-01-09T01:17:37.389Z,27.21
2023-01-09T01:18:40.815Z,27.31
2023-01-09T01:19:42.683Z,27.09
2023-01-09T01:20:45.548Z,27.37
2023-01-09T01:21:47.492Z,27.14
2023-01-09T01:22:49.370Z,27.05
2023-01-09T01:23:51.211Z,27.25
2023-01-09T01:24:52.995Z,27.23
2023-01-09T01:25:54.791Z,27.40
2023-01-09T01:26:56.592Z,27.18
2023-01-09T01:27:58.428Z,27.25
2023-01-09T01:29:00.263Z,27.02
2023-01-09T01:30:02.058Z,26.91
2023-01-09T01:31:04.797Z,26.87
2023-01-09T01:32:06.680Z,27.30
2023-01-09T01:33:09.591Z,27.24
2023-01-09T01:34:11.489Z,27.00
2023-01-09T01:35:13.740Z,27.30
2023-01-09T01:36:17.595Z,27.28
2023-01-09T01:37:19.512Z,27.04
2023-01-09T01:38:21.308Z,27.13
2023-01-09T01:39:23.195Z,26.88
2023-01-09T01:40:25.003Z,27.29
2023-01-09T01:41:29.898Z,26.89
2023-01-09T01:42:32.457Z,27.20
2023-01-09T01:44:28.297Z,26.93
2023-01-09T01:45:30.547Z,26.55
2023-01-09T01:46:33.697Z,26.86
2023-01-09T01:47:38.769Z,26.84
2023-01-09T01:48:40.582Z,27.36
2023-01-09T01:49:42.448Z,27.28
2023-01-09T01:51:06.631Z,27.08
2023-01-09T01:52:08.686Z,27.17
2023-01-09T01:53:10.474Z,27.08
2023-01-09T01:54:22.047Z,26.95
2023-01-09T01:55:24.569Z,27.31
2023-01-09T01:56:37.096Z,27.06
2023-01-09T01:57:42.665Z,27.16
2023-01-09T01:58:57.896Z,27.12
2023-01-09T02:00:03.177Z,27.16
2023-01-09T02:01:06.895Z,27.37
2023-01-09T02:02:10.218Z,26.95
2023-01-09T02:03:18.630Z,27.14
2023-01-09T02:04:20.935Z,27.20
2023-01-09T02:05:23.285Z,27.27
2023-01-09T02:06:26.070Z,27.39
2023-01-09T02:07:28.156Z,26.96
2023-01-09T02:08:30.137Z,27.50
2023-01-09T02:09:32.030Z,27.16
2023-01-09T02:10:34.773Z,27.10
2023-01-09T02:11:37.861Z,27.18
2023-01-09T02:12:39.676Z,27.10
2023-01-09T02:13:42.239Z,27.12
2023-01-09T02:14:44.824Z,27.26
2023-01-09T02:16:06.332Z,27.21
2023-01-09T02:17:45.212Z,26.97
2023-01-09T02:18:54.129Z,27.00
2023-01-09T02:20:28.065Z,26.99
2023-01-09T02:21:48.870Z,27.21
2023-01-09T02:23:32.631Z,27.12
2023-01-09T02:24:40.968Z,27.07
2023-01-09T02:26:10.545Z,27.10
2023-01-09T02:27:34.759Z,26.82
2023-01-09T02:29:03.924Z,27.35
2023-01-09T02:30:26.576Z,26.84
2023-01-09T02:31:47.355Z,26.99
2023-01-09T02:33:39.926Z,27.15
2023-01-09T02:34:56.323Z,26.86
2023-01-09T02:36:24.807Z,27.26
2023-01-09T02:37:44.959Z,26.83
2023-01-09T02:38:49.843Z,27.03
2023-01-09T02:40:09.384Z,27.02
2023-01-09T02:41:26.008Z,27.43
2023-01-09T02:42:27.991Z,27.08
2023-01-09T02:43:31.925Z,27.49
2023-01-09T02:44:36.159Z,27.37
2023-01-09T02:45:38.031Z,27.25
2023-01-09T02:46:39.890Z,27.27
2023-01-09T02:47:46.428Z,27.26
2023-01-09T02:48:52.741Z,27.26
2023-01-09T02:50:00.200Z,27.50
2023-01-09T02:51:29.351Z,27.26
2023-01-09T02:52:45.322Z,27.23
2023-01-09T02:54:27.529Z,27.12
2023-01-09T02:55:54.117Z,27.43
2023-01-09T02:57:36.543Z,27.18
2023-01-09T02:59:00.168Z,26.97
2023-01-09T03:00:19.001Z,27.23
2023-01-09T03:01:29.640Z,27.44
2023-01-09T03:03:09.896Z,27.34
2023-01-09T03:04:41.524Z,27.51
2023-01-09T03:05:54.943Z,27.11
2023-01-09T03:07:07.570Z,27.35
2023-01-09T03:08:14.953Z,27.48
2023-01-09T03:09:27.703Z,27.33
2023-01-09T03:10:41.341Z,27.42
2023-01-09T03:11:50.155Z,27.55
2023-01-09T03:12:54.601Z,27.44
2023-01-09T03:14:03.589Z,27.40
2023-01-09T03:15:08.918Z,27.60
2023-01-09T03:16:15.850Z,27.54
2023-01-09T03:17:26.013Z,27.73
2023-01-09T03:18:29.964Z,27.17
2023-01-09T03:19:34.339Z,27.65
2023-01-09T03:20:38.090Z,27.63
2023-01-09T03:21:40.990Z,27.24
2023-01-09T03:23:04.456Z,27.51
2023-01-09T03:24:06.415Z,27.79
2023-01-09T03:25:08.575Z,27.43
2023-01-09T03:26:11.730Z,27.19
2023-01-09T03:27:14.283Z,27.61
2023-01-09T03:28:26.741Z,27.41
2023-01-09T03:29:29.614Z,27.44
2023-01-09T03:30:33.475Z,27.60
2023-01-09T03:31:35.361Z,27.66
2023-01-09T03:32:37.197Z,27.45
2023-01-09T03:33:39.152Z,27.54
2023-01-09T03:34:40.994Z,27.62
2023-01-09T03:35:42.769Z,27.27
2023-01-09T03:36:44.974Z,27.56
2023-01-09T03:37:46.836Z,27.46
2023-01-09T03:38:49.187Z,27.64
2023-01-09T03:39:51.001Z,27.45
2023-01-09T03:40:52.836Z,27.27
2023-01-09T03:41:54.638Z,27.62
2023-01-09T03:42:56.447Z,27.48
2023-01-09T03:43:58.222Z,27.43
2023-01-09T03:45:00.087Z,27.44
2023-01-09T03:46:02.351Z,27.66
2023-01-09T03:47:04.211Z,27.57
2023-01-09T03:48:06.335Z,27.35
2023-01-09T03:49:08.111Z,27.61
2023-01-09T03:50:10.561Z,27.54
2023-01-09T03:51:12.349Z,27.36
2023-01-09T03:52:14.153Z,27.45
2023-01-09T03:53:15.999Z,27.70
2023-01-09T03:54:17.825Z,27.38
2023-01-09T03:55:19.715Z,27.60
2023-01-09T03:56:21.656Z,27.72
2023-01-09T03:57:24.318Z,27.19
2023-01-09T03:58:26.687Z,27.42
2023-01-09T03:59:28.437Z,27.68
2023-01-09T04:00:30.214Z,27.52
2023-01-09T04:01:32.119Z,27.50
2023-01-09T04:02:34.045Z,27.30
2023-01-09T04:03:36.262Z,27.34
2023-01-09T04:04:38.152Z,27.34
2023-01-09T04:05:39.905Z,27.82
2023-01-09T04:06:41.670Z,27.83
2023-01-09T04:07:43.526Z,27.31
2023-01-09T04:08:46.442Z,27.78
2023-01-09T04:09:48.287Z,27.49
2023-01-09T04:10:52.328Z,27.27
2023-01-09T04:11:54.185Z,27.11
2023-01-09T04:12:56.298Z,27.67
2023-01-09T04:13:58.107Z,27.69
2023-01-09T04:14:59.855Z,27.44
2023-01-09T04:16:01.716Z,27.41
2023-01-09T04:17:03.531Z,27.37
2023-01-09T04:18:05.525Z,27.84
2023-01-09T04:19:07.396Z,27.84
2023-01-09T04:20:10.015Z,27.39
2023-01-09T04:21:11.852Z,27.63
2023-01-09T04:22:13.699Z,27.65
2023-01-09T04:23:15.678Z,27.60
2023-01-09T04:24:17.594Z,27.54
2023-01-09T04:25:19.439Z,27.72
2023-01-09T04:26:21.324Z,27.76
2023-01-09T04:27:23.603Z,27.32
2023-01-09T04:28:25.415Z,27.62
2023-01-09T04:29:27.199Z,27.80
2023-01-09T04:30:28.967Z,27.63
2023-01-09T04:31:30.906Z,27.64
2023-01-09T04:32:32.793Z,27.58
2023-01-09T04:33:34.875Z,27.57
2023-01-09T04:34:36.652Z,27.48
2023-01-09T04:35:38.525Z,27.33
2023-01-09T04:36:40.301Z,27.56
2023-01-09T04:37:42.184Z,27.61
2023-01-09T04:38:43.984Z,27.70
2023-01-09T04:39:46.086Z,27.64
2023-01-09T04:40:48.696Z,27.44
2023-01-09T04:41:50.566Z,27.84
2023-01-09T04:42:52.349Z,27.63
2023-01-09T04:43:54.138Z,27.65
2023-01-09T04:44:55.931Z,27.62
2023-01-09T04:45:57.740Z,27.77
2023-01-09T04:46:59.629Z,27.62
2023-01-09T04:48:01.419Z,27.98
2023-01-09T04:49:03.321Z,27.91
2023-01-09T04:50:05.591Z,27.57
2023-01-09T04:51:07.452Z,27.68
2023-01-09T04:52:09.221Z,27.68
2023-01-09T04:53:11.007Z,27.66
2023-01-09T04:54:13.098Z,27.52
2023-01-09T04:55:14.922Z,27.65
2023-01-09T04:56:16.705Z,27.62
2023-01-09T04:57:18.657Z,27.48
2023-01-09T04:58:20.456Z,27.68
2023-01-09T04:59:22.257Z,27.45
2023-01-09T05:00:24.093Z,27.54
2023-01-09T05:01:25.972Z,27.64
2023-01-09T05:02:27.806Z,27.83
2023-01-09T05:03:29.645Z,27.86
2023-01-09T05:04:31.625Z,27.66
2023-01-09T05:05:33.539Z,27.62
2023-01-09T05:06:35.377Z,27.99
2023-01-09T05:07:37.519Z,27.55
2023-01-09T05:08:39.298Z,27.70
2023-01-09T05:09:41.201Z,27.87
2023-01-09T05:10:42.995Z,27.88
2023-01-09T05:11:44.931Z,27.89
2023-01-09T05:12:46.783Z,27.83
2023-01-09T05:13:48.574Z,27.90
2023-01-09T05:14:50.323Z,27.95
2023-01-09T05:15:52.111Z,28.03
2023-01-09T05:16:53.960Z,27.74
2023-01-09T05:17:55.829Z,27.86
2023-01-09T05:18:57.972Z,27.74
2023-01-09T05:20:01.115Z,27.88
2023-01-09T05:21:03.294Z,27.62
2023-01-09T05:22:05.434Z,27.79
2023-01-09T05:23:07.498Z,27.99
2023-01-09T05:24:09.271Z,27.63
2023-01-09T05:25:11.050Z,27.69
2023-01-09T05:26:12.792Z,27.68
2023-01-09T05:27:14.768Z,28.01
2023-01-09T05:28:16.679Z,27.83
2023-01-09T05:29:18.516Z,27.85
2023-01-09T05:30:20.492Z,27.82
2023-01-09T05:31:23.501Z,27.88
2023-01-09T05:32:25.385Z,27.74
2023-01-09T05:33:27.372Z,27.67
2023-01-09T05:34:29.317Z,27.95
2023-01-09T05:35:31.130Z,27.85
2023-01-09T05:36:32.963Z,27.73
2023-01-09T05:37:34.728Z,27.94
2023-01-09T05:38:36.491Z,28.00
2023-01-09T05:39:38.255Z,28.09
2023-01-09T05:40:40.761Z,27.80
2023-01-09T05:41:42.647Z,27.67
2023-01-09T05:42:46.101Z,27.84
2023-01-09T05:43:47.862Z,27.90
2023-01-09T05:44:49.647Z,27.92
2023-01-09T05:45:51.521Z,27.77
2023-01-09T05:46:53.431Z,27.76
2023-01-09T05:47:55.254Z,27.49
2023-01-09T05:48:57.261Z,27.96
2023-01-09T05:49:59.069Z,27.75
2023-01-09T05:51:00.856Z,27.93
2023-01-09T05:52:02.726Z,27.64
2023-01-09T05:53:04.506Z,27.72
2023-01-09T05:54:07.564Z,27.84
2023-01-09T05:55:09.579Z,27.76
2023-01-09T05:56:11.880Z,27.68
2023-01-09T05:57:13.941Z,27.84
2023-01-09T05:58:15.739Z,27.75
2023-01-09T05:59:17.551Z,27.81
2023-01-09T06:00:19.832Z,27.96
2023-01-09T06:01:23.638Z,27.69
2023-01-09T06:02:25.824Z,27.64
2023-01-09T06:03:27.783Z,27.81
2023-01-09T06:04:30.080Z,27.99
2023-01-09T06:05:31.975Z,27.78
2023-01-09T06:06:33.810Z,27.41
2023-01-09T06:07:39.348Z,27.85
2023-01-09T06:08:41.160Z,27.66
2023-01-09T06:09:42.969Z,27.75
2023-01-09T06:10:46.214Z,27.99
2023-01-09T06:11:48.199Z,27.88
2023-01-09T06:12:51.542Z,27.75
2023-01-09T06:13:53.297Z,27.73
2023-01-09T06:14:55.173Z,27.53
2023-01-09T06:15:56.946Z,27.84
2023-01-09T06:16:59.117Z,27.60
2023-01-09T06:18:00.936Z,27.57
2023-01-09T06:19:02.886Z,27.65
2023-01-09T06:20:05.146Z,27.66
2023-01-09T06:21:06.907Z,27.36
2023-01-09T06:22:08.674Z,27.69
2023-01-09T06:23:12.746Z,27.33
2023-01-09T06:24:15.231Z,27.13
2023-01-09T06:25:17.081Z,27.38
2023-01-09T06:26:18.857Z,27.29
2023-01-09T06:27:20.744Z,27.47
2023-01-09T06:28:22.502Z,27.13
2023-01-09T06:29:24.357Z,26.91
2023-01-09T06:30:26.169Z,26.92
2023-01-09T06:31:28.372Z,26.78
2023-01-09T06:32:30.245Z,27.11
2023-01-09T06:33:32.339Z,27.02
2023-01-09T06:34:34.188Z,26.69
2023-01-09T06:35:36.079Z,26.76
2023-01-09T06:36:37.835Z,26.65
2023-01-09T06:37:39.722Z,26.64
2023-01-09T06:38:41.630Z,26.50
2023-01-09T06:39:43.431Z,26.78
2023-01-09T06:40:45.293Z,26.52
2023-01-09T06:41:48.490Z,26.46
2023-01-09T06:42:50.562Z,26.58
2023-01-09T06:43:52.589Z,26.39
2023-01-09T06:44:54.348Z,26.60
2023-01-09T06:45:56.254Z,26.50
2023-01-09T06:46:58.077Z,26.50
2023-01-09T06:47:59.928Z,26.42
2023-01-09T06:49:01.712Z,26.32
2023-01-09T06:50:03.848Z,26.64
2023-01-09T06:51:05.931Z,26.16
2023-01-09T06:52:08.069Z,26.16
2023-01-09T06:53:10.826Z,26.18
2023-01-09T06:54:12.589Z,26.34
2023-01-09T06:55:14.411Z,26.38
2023-01-09T06:56:16.310Z,26.16
2023-01-09T06:57:18.169Z,26.26
2023-01-09T06:58:20.678Z,26.18
2023-01-09T06:59:22.665Z,25.98
2023-01-09T07:00:24.547Z,25.79
2023-01-09T07:01:26.357Z,26.11
2023-01-09T07:02:28.525Z,26.05
2023-01-09T07:03:31.947Z,25.79
2023-01-09T07:04:34.935Z,26.33
2023-01-09T07:05:42.611Z,25.56
2023-01-09T07:06:48.212Z,26.01
2023-01-09T07:07:50.026Z,25.89
2023-01-09T07:08:51.944Z,25.52
2023-01-09T07:09:53.800Z,25.82
2023-01-09T07:10:55.568Z,26.03
2023-01-09T07:11:57.376Z,25.54
2023-01-09T07:12:59.145Z,25.71
2023-01-09T07:14:00.921Z,25.98
2023-01-09T07:15:02.754Z,25.74
2023-01-09T07:16:05.596Z,25.76
2023-01-09T07:17:07.609Z,25.54
2023-01-09T07:18:09.606Z,25.54
2023-01-09T07:19:11.392Z,26.02
2023-01-09T07:20:13.179Z,26.05
2023-01-09T07:21:14.939Z,25.92
2023-01-09T07:22:17.387Z,25.60
2023-01-09T07:23:19.198Z,25.52
2023-01-09T07:24:21.032Z,25.77
2023-01-09T07:25:22.815Z,25.89
2023-01-09T07:26:24.644Z,25.51
2023-01-09T07:27:26.441Z,26.06
2023-01-09T07:28:28.317Z,25.61
2023-01-09T07:29:30.550Z,25.26
2023-01-09T07:30:33.474Z,25.61
2023-01-09T07:31:35.389Z,25.54
2023-01-09T07:32:38.578Z,25.87
2023-01-09T07:33:40.453Z,25.38
2023-01-09T07:34:42.317Z,25.53
2023-01-09T07:35:44.057Z,25.52
2023-01-09T07:36:46.735Z,25.54
2023-01-09T07:37:48.558Z,25.51
2023-01-09T07:38:50.423Z,25.50
2023-01-09T07:39:52.566Z,25.82
2023-01-09T07:40:54.839Z,25.74
2023-01-09T07:41:56.651Z,25.92
2023-01-09T07:42:58.458Z,25.76
2023-01-09T07:44:00.319Z,25.55
2023-01-09T07:45:02.195Z,25.69
2023-01-09T07:46:04.321Z,25.75
2023-01-09T07:47:06.254Z,25.60
2023-01-09T07:48:08.049Z,25.35
2023-01-09T07:49:09.825Z,25.94
2023-01-09T07:50:11.803Z,25.86
2023-01-09T07:51:13.736Z,25.55
2023-01-09T07:52:15.628Z,25.74
2023-01-09T07:53:17.385Z,25.78
2023-01-09T07:54:19.277Z,25.76
2023-01-09T07:55:21.131Z,25.89
2023-01-09T07:56:23.088Z,25.73
2023-01-09T07:57:24.913Z,25.74
2023-01-09T07:58:26.807Z,25.64
2023-01-09T07:59:29.757Z,25.64
2023-01-09T08:00:33.126Z,25.58
2023-01-09T08:01:35.528Z,25.61
2023-01-09T08:02:37.383Z,25.83
2023-01-09T08:03:39.198Z,25.97
2023-01-09T08:04:40.999Z,25.70
2023-01-09T08:05:42.831Z,25.86
2023-01-09T08:06:44.650Z,25.78
2023-01-09T08:07:46.683Z,26.01
2023-01-09T08:08:48.585Z,25.67
2023-01-09T08:09:50.360Z,25.86
2023-01-09T08:10:52.169Z,26.15
2023-01-09T08:11:54.585Z,25.93
2023-01-09T08:12:57.482Z,25.93
2023-01-09T08:13:59.263Z,26.07
2023-01-09T08:15:01.248Z,26.18
2023-01-09T08:16:03.375Z,25.96
2023-01-09T08:17:05.184Z,26.00
2023-01-09T08:18:06.950Z,25.93
2023-01-09T08:19:08.851Z,25.70
2023-01-09T08:20:12.724Z,25.81
2023-01-09T08:21:14.490Z,25.58
2023-01-09T08:22:16.296Z,25.79
2023-01-09T08:23:18.144Z,26.01
2023-01-09T08:24:19.905Z,25.92
2023-01-09T08:25:21.876Z,25.86
2023-01-09T08:26:23.731Z,25.70
2023-01-09T08:27:25.588Z,25.69
2023-01-09T08:28:27.401Z,25.74
2023-01-09T08:29:30.499Z,25.98
2023-01-09T08:30:32.439Z,25.80
2023-01-09T08:31:34.266Z,25.99
2023-01-09T08:32:37.510Z,25.70
2023-01-09T08:33:40.507Z,25.98
2023-01-09T08:34:42.517Z,26.00
2023-01-09T08:35:44.941Z,25.65
2023-01-09T08:36:46.770Z,25.70
2023-01-09T08:37:49.249Z,26.24
2023-01-09T08:38:51.024Z,25.66
2023-01-09T08:39:53.456Z,25.52
2023-01-09T08:40:55.259Z,25.98
2023-01-09T08:42:15.561Z,25.87
2023-01-09T08:43:36.051Z,26.01
2023-01-09T08:44:56.296Z,25.68
2023-01-09T08:46:17.297Z,25.82
2023-01-09T08:47:23.423Z,25.97
2023-01-09T08:48:25.311Z,25.66
2023-01-09T08:49:27.092Z,25.64
2023-01-09T08:50:28.921Z,25.82
2023-01-09T08:51:30.842Z,25.90
2023-01-09T08:52:32.929Z,25.75
2023-01-09T08:53:34.701Z,26.06
2023-01-09T08:54:39.041Z,25.95
2023-01-09T08:55:41.169Z,25.88
2023-01-09T08:56:42.959Z,25.92
2023-01-09T08:57:52.444Z,26.02
2023-01-09T08:58:54.248Z,25.60
2023-01-09T08:59:56.107Z,25.59
2023-01-09T09:00:59.026Z,25.85
2023-01-09T09:02:01.066Z,25.58
2023-01-09T09:03:03.040Z,25.57
2023-01-09T09:04:05.934Z,25.53
2023-01-09T09:05:08.184Z,25.55
2023-01-09T09:06:10.216Z,25.77
2023-01-09T09:07:11.983Z,25.50
2023-01-09T09:08:13.970Z,25.99
2023-01-09T09:09:15.983Z,25.59
2023-01-09T09:10:18.346Z,25.39
2023-01-09T09:11:20.152Z,25.67
2023-01-09T09:12:22.553Z,25.78
2023-01-09T09:13:24.343Z,26.09
2023-01-09T09:14:44.460Z,25.62
2023-01-09T09:15:46.318Z,25.60
2023-01-09T09:16:49.367Z,25.76
2023-01-09T09:18:02.328Z,25.64
2023-01-09T09:19:04.111Z,25.59
2023-01-09T09:20:09.933Z,25.61
2023-01-09T09:21:11.739Z,25.62
2023-01-09T09:22:13.488Z,25.44
2023-01-09T09:23:15.410Z,26.01
2023-01-09T09:24:17.241Z,26.01
2023-01-09T09:25:20.153Z,25.74
2023-01-09T09:26:21.969Z,25.85
2023-01-09T09:27:23.807Z,25.66
2023-01-09T09:28:25.568Z,25.79
2023-01-09T09:29:27.335Z,25.59
2023-01-09T09:30:29.152Z,25.76
2023-01-09T09:31:31.254Z,25.79
2023-01-09T09:32:33.212Z,25.65
2023-01-09T09:33:34.973Z,25.90
2023-01-09T09:34:36.763Z,25.53
2023-01-09T09:35:38.553Z,25.60
2023-01-09T09:36:40.392Z,25.98
2023-01-09T09:37:42.270Z,25.84
2023-01-09T09:38:44.055Z,25.79
2023-01-09T09:39:45.856Z,26.07
2023-01-09T09:41:32.447Z,25.43
2023-01-09T09:42:58.645Z,25.17
2023-01-09T09:44:48.332Z,25.61
2023-01-09T09:46:20.321Z,25.98
2023-01-09T09:47:47.095Z,25.52
2023-01-09T09:48:56.086Z,25.66
2023-01-09T09:50:14.116Z,25.72
2023-01-09T09:51:40.097Z,25.74
2023-01-09T09:52:53.606Z,25.79
2023-01-09T09:54:01.804Z,25.73
2023-01-09T09:55:14.246Z,25.90
2023-01-09T09:56:19.131Z,25.69
2023-01-09T09:57:25.932Z,25.49
2023-01-09T09:58:39.872Z,25.37
2023-01-09T09:59:43.117Z,26.13
2023-01-09T10:00:44.955Z,25.63
2023-01-09T10:02:27.738Z,25.66
2023-01-09T10:03:58.603Z,25.57
2023-01-09T10:05:18.996Z,25.54
2023-01-09T10:06:29.187Z,25.69
2023-01-09T10:07:42.259Z,25.73
2023-01-09T10:09:05.484Z,25.58
2023-01-09T10:10:16.020Z,26.06
2023-01-09T10:11:26.796Z,25.43
2023-01-09T10:12:33.162Z,25.82
2023-01-09T10:13:53.385Z,25.59
2023-01-09T10:14:58.128Z,25.49
2023-01-09T10:16:14.997Z,26.08
2023-01-09T10:17:38.000Z,25.65
2023-01-09T10:19:16.328Z,25.56
2023-01-09T10:20:27.365Z,25.43
2023-01-09T10:22:07.629Z,25.92
2023-01-09T10:23:24.567Z,25.56
2023-01-09T10:24:34.967Z,25.65
2023-01-09T10:25:55.449Z,25.89
2023-01-09T10:27:01.795Z,25.83
2023-01-09T10:28:27.664Z,25.51
2023-01-09T10:30:01.592Z,25.56
2023-01-09T10:31:16.011Z,25.60
2023-01-09T10:32:37.571Z,25.53
2023-01-09T10:34:02.642Z,25.92
2023-01-09T10:35:23.210Z,26.09
2023-01-09T10:36:43.180Z,25.88
2023-01-09T10:37:47.405Z,25.40
2023-01-09T10:38:53.132Z,25.74
2023-01-09T10:40:00.275Z,26.14
2023-01-09T10:41:07.645Z,25.53
2023-01-09T10:42:26.620Z,25.65
2023-01-09T10:43:38.016Z,26.06
2023-01-09T10:44:48.113Z,26.00
2023-01-09T10:45:57.768Z,25.74
2023-01-09T10:47:02.587Z,25.51
2023-01-09T10:48:36.910Z,26.06
2023-01-09T10:49:38.813Z,25.43
2023-01-09T10:50:45.963Z,25.78
2023-01-09T10:51:49.159Z,25.74
2023-01-09T10:52:53.470Z,25.93
2023-01-09T10:53:56.603Z,25.61
2023-01-09T10:55:21.948Z,25.93
2023-01-09T10:56:30.955Z,26.05
2023-01-09T10:57:43.050Z,25.68
2023-01-09T10:58:44.923Z,25.49
2023-01-09T10:59:46.920Z,25.89
2023-01-09T11:00:51.046Z,25.89
2023-01-09T11:01:53.983Z,25.71
2023-01-09T11:02:55.956Z,25.98
2023-01-09T11:04:02.352Z,25.69
2023-01-09T11:05:04.371Z,25.74
2023-01-09T11:06:21.264Z,25.70
2023-01-09T11:07:30.664Z,25.90
2023-01-09T11:08:43.046Z,26.06
2023-01-09T11:09:57.016Z,25.52
2023-01-09T11:11:01.471Z,25.96
2023-01-09T11:12:24.320Z,25.87
2023-01-09T11:13:33.600Z,25.77
2023-01-09T11:14:38.050Z,25.64
2023-01-09T11:15:39.900Z,25.42
2023-01-09T11:16:53.178Z,26.02
2023-01-09T11:18:16.198Z,25.84
2023-01-09T11:19:18.539Z,25.75
2023-01-09T11:20:28.570Z,26.19
2023-01-09T11:21:41.645Z,25.62
2023-01-09T11:22:55.376Z,25.64
2023-01-09T11:24:17.015Z,26.13
2023-01-09T11:25:21.757Z,25.69
2023-01-09T11:26:28.661Z,25.68
2023-01-09T11:27:30.612Z,25.85
2023-01-09T11:28:32.442Z,25.61
2023-01-09T11:29:34.246Z,26.17
2023-01-09T11:30:37.839Z,25.77
2023-01-09T11:31:50.596Z,26.19
2023-01-09T11:32:53.222Z,25.94
2023-01-09T11:33:55.524Z,25.90
2023-01-09T11:34:57.628Z,25.75
2023-01-09T11:36:10.990Z,25.84
2023-01-09T11:37:19.109Z,25.88
2023-01-09T11:38:20.992Z,25.95
2023-01-09T11:39:25.719Z,26.11
2023-01-09T11:40:28.527Z,26.18
2023-01-09T11:41:36.551Z,25.71
2023-01-09T11:42:53.649Z,25.66
2023-01-09T11:43:58.437Z,26.21
2023-01-09T11:45:01.653Z,25.88
2023-01-09T11:46:11.572Z,25.80
2023-01-09T11:47:39.117Z,25.91
2023-01-09T11:48:58.364Z,25.84
2023-01-09T11:50:26.487Z,25.71
2023-01-09T11:51:34.069Z,25.68
2023-01-09T11:52:35.973Z,25.93
2023-01-09T11:53:49.189Z,25.97
2023-01-09T11:55:05.676Z,25.80
2023-01-09T11:56:09.837Z,26.22
2023-01-09T11:57:12.614Z,25.94
2023-01-09T11:58:16.877Z,25.88
2023-01-09T11:59:21.737Z,25.68
2023-01-09T12:00:29.585Z,25.86
2023-01-09T12:01:57.914Z,25.75
2023-01-09T12:03:42.697Z,26.09
2023-01-09T12:05:16.903Z,26.00
2023-01-09T12:06:27.797Z,25.57
2023-01-09T12:07:42.091Z,26.08
2023-01-09T12:09:03.102Z,25.82
2023-01-09T12:10:23.810Z,25.63
2023-01-09T12:11:47.480Z,25.72
2023-01-09T12:13:11.974Z,26.01
2023-01-09T12:14:16.313Z,25.65
2023-01-09T12:15:38.728Z,25.75
2023-01-09T12:17:06.938Z,25.66
2023-01-09T12:18:23.824Z,25.94
2023-01-09T12:19:54.003Z,25.96
2023-01-09T12:21:14.013Z,26.17
2023-01-09T12:22:40.238Z,25.69
2023-01-09T12:24:10.106Z,25.84
2023-01-09T12:25:30.969Z,25.78
2023-01-09T12:26:52.473Z,25.68
2023-01-09T12:28:00.326Z,25.70
2023-01-09T12:29:22.489Z,26.26
2023-01-09T12:30:57.326Z,26.23
2023-01-09T12:32:28.136Z,25.99
2023-01-09T12:33:48.884Z,26.00
2023-01-09T12:35:10.635Z,25.71
2023-01-09T12:36:21.169Z,25.90
2023-01-09T12:37:53.891Z,26.16
2023-01-09T12:39:06.745Z,26.21
2023-01-09T12:40:34.572Z,26.18
2023-01-09T12:41:58.976Z,25.81
2023-01-09T12:43:22.071Z,26.04
2023-01-09T12:44:59.644Z,26.23
2023-01-09T12:46:13.469Z,25.94
2023-01-09T12:47:22.653Z,25.74
2023-01-09T12:48:57.423Z,25.77
2023-01-09T12:50:14.591Z,25.67
2023-01-09T12:51:35.309Z,26.03
2023-01-09T12:53:06.203Z,25.62
2023-01-09T12:54:21.210Z,26.13
2023-01-09T12:55:27.664Z,25.70
2023-01-09T12:56:37.551Z,25.83
2023-01-09T12:57:44.661Z,26.08
2023-01-09T12:58:57.525Z,25.92
2023-01-09T13:00:30.611Z,26.29
2023-01-09T13:01:46.784Z,25.72
2023-01-09T13:03:00.597Z,26.25
2023-01-09T13:04:34.858Z,25.66
2023-01-09T13:05:49.240Z,26.00
2023-01-09T13:06:59.880Z,26.00
2023-01-09T13:08:28.861Z,26.02
2023-01-09T13:09:43.717Z,25.63
2023-01-09T13:10:48.752Z,26.22
2023-01-09T13:12:03.118Z,26.30
2023-01-09T13:13:15.519Z,26.00
2023-01-09T13:14:48.045Z,25.52
2023-01-09T13:16:04.667Z,26.15
2023-01-09T13:17:13.011Z,25.74
2023-01-09T13:18:29.561Z,25.73
2023-01-09T13:19:39.501Z,25.86
2023-01-09T13:20:53.842Z,26.22
2023-01-09T13:21:57.644Z,25.92
2023-01-09T13:23:01.911Z,26.30
2023-01-09T13:24:15.838Z,25.86
2023-01-09T13:25:29.801Z,25.68
2023-01-09T13:26:42.088Z,25.60
2023-01-09T13:27:52.510Z,25.92
2023-01-09T13:29:03.277Z,26.23
2023-01-09T13:30:42.880Z,25.73
2023-01-09T13:31:53.966Z,25.75
2023-01-09T13:33:14.731Z,26.21
2023-01-09T13:34:23.860Z,25.80
2023-01-09T13:35:25.854Z,25.79
2023-01-09T13:36:33.042Z,26.06
2023-01-09T13:37:36.959Z,25.96
2023-01-09T13:38:39.164Z,26.23
2023-01-09T13:39:40.949Z,26.16
2023-01-09T13:40:43.149Z,25.88
2023-01-09T13:42:12.747Z,26.19
2023-01-09T13:43:16.716Z,25.79
2023-01-09T13:44:18.469Z,26.25
2023-01-09T13:45:25.737Z,25.98
2023-01-09T13:46:41.339Z,25.89
2023-01-09T13:47:43.936Z,25.99
2023-01-09T13:48:47.036Z,26.03
2023-01-09T13:49:48.855Z,25.68
2023-01-09T13:50:51.154Z,25.87
2023-01-09T13:51:52.989Z,26.03
2023-01-09T13:52:56.117Z,26.13
2023-01-09T13:53:57.911Z,26.19
2023-01-09T13:55:11.787Z,26.10
2023-01-09T13:56:14.550Z,25.74
2023-01-09T13:57:24.987Z,26.07
2023-01-09T13:58:28.377Z,25.88
2023-01-09T13:59:30.257Z,26.24
2023-01-09T14:00:35.105Z,26.09
2023-01-09T14:01:39.937Z,25.91
2023-01-09T14:02:42.547Z,25.72
2023-01-09T14:03:44.430Z,26.18
2023-01-09T14:04:46.334Z,26.03
2023-01-09T14:05:48.062Z,26.13
2023-01-09T14:07:16.736Z,25.92
2023-01-09T14:08:23.994Z,26.00
2023-01-09T14:09:27.191Z,25.93
2023-01-09T14:10:53.739Z,26.15
2023-01-09T14:12:04.726Z,25.70
2023-01-09T14:13:13.063Z,25.74
2023-01-09T14:14:26.064Z,25.76
2023-01-09T14:15:36.478Z,26.35
2023-01-09T14:16:39.661Z,26.28
2023-01-09T14:17:41.597Z,26.03
2023-01-09T14:19:02.157Z,26.28
2023-01-09T14:20:48.011Z,25.98
2023-01-09T14:21:55.325Z,26.11
2023-01-09T14:23:18.042Z,26.09
2023-01-09T14:24:41.101Z,26.28
2023-01-09T14:25:44.913Z,26.24